Time;durP1;ratioP1;P1;durP2;ratioP2;P2;SDS_P1;SDS_P2;PMS_P1;PMS_P2;Temp;Humidity;BMP_temperature;BMP_pressure;BME280_temperature;BME280_humidity;BME280_pressure;Samples;Min_cycle;Max_cycle;Signal;HPM_P1;HPM_P2
2023/02/13 00:00:10;;;;;;;20.08;8.65;;;2.10;92.70;;;;;;4979140;28;87387;-73
2023/02/13 00:02:35;;;;;;;21.48;9.15;;;2.10;92.90;;;;;;4982570;28;88234;-74
2023/02/13 00:05:01;;;;;;;21.75;9.35;;;2.00;93.10;;;;;;4978923;28;87720;-74
2023/02/13 00:07:27;;;;;;;22.98;9.57;;;2.00;92.70;;;;;;4978573;28;88712;-74
2023/02/13 00:09:52;;;;;;;19.08;8.55;;;2.00;93.40;;;;;;4980264;28;88092;-74
2023/02/13 00:12:18;;;;;;;24.35;9.63;;;2.10;93.10;;;;;;4977594;28;87466;-74
2023/02/13 00:14:44;;;;;;;21.80;9.05;;;2.00;93.70;;;;;;4984439;28;87103;-74
2023/02/13 00:17:09;;;;;;;20.40;9.05;;;2.10;93.30;;;;;;4979901;28;87110;-74
2023/02/13 00:19:35;;;;;;;24.13;9.82;;;1.90;93.70;;;;;;4998014;28;87962;-73
2023/02/13 00:22:01;;;;;;;25.48;9.68;;;1.90;94.40;;;;;;4988715;28;87414;-73
2023/02/13 00:24:26;;;;;;;21.65;9.65;;;1.90;94.80;;;;;;4979480;28;87364;-72
2023/02/13 00:26:52;;;;;;;26.00;10.60;;;1.80;94.00;;;;;;4984760;28;90661;-72
2023/02/13 00:29:18;;;;;;;20.02;9.23;;;1.80;94.50;;;;;;4976413;28;87346;-72
2023/02/13 00:31:43;;;;;;;23.80;10.27;;;1.80;94.50;;;;;;4989579;28;87524;-73
2023/02/13 00:34:09;;;;;;;23.77;9.23;;;1.80;94.30;;;;;;4976882;28;87306;-73
2023/02/13 00:36:35;;;;;;;24.48;9.85;;;1.70;93.90;;;;;;4982400;28;89016;-73
2023/02/13 00:39:00;;;;;;;24.95;9.63;;;1.70;94.50;;;;;;4978523;28;89388;-74
2023/02/13 00:41:26;;;;;;;23.20;9.38;;;1.70;94.10;;;;;;4990562;28;87311;-73
2023/02/13 00:43:52;;;;;;;25.85;10.77;;;1.80;94.00;;;;;;4979514;28;86857;-73
2023/02/13 00:46:18;;;;;;;26.58;10.13;;;1.70;94.50;;;;;;4987541;28;89554;-72
2023/02/13 00:48:44;;;;;;;25.42;9.52;;;1.80;94.60;;;;;;4980717;28;87906;-72
2023/02/13 00:51:10;;;;;;;25.17;10.10;;;1.80;94.30;;;;;;4980993;28;88345;-74
2023/02/13 00:53:38;;;;;;;24.95;9.52;;;1.90;94.10;;;;;;4985121;28;87461;-72
2023/02/13 00:56:04;;;;;;;22.17;9.32;;;2.10;93.70;;;;;;4987285;28;87430;-74
2023/02/13 00:58:30;;;;;;;24.15;9.50;;;2.10;94.00;;;;;;4994097;28;87993;-71
2023/02/13 01:00:56;;;;;;;23.42;9.90;;;2.20;93.60;;;;;;4986206;28;87259;-73
2023/02/13 01:03:22;;;;;;;21.02;9.52;;;2.30;94.10;;;;;;4983641;28;88118;-75
2023/02/13 01:05:49;;;;;;;23.75;9.93;;;2.40;93.40;;;;;;4975470;28;87685;-75
2023/02/13 01:08:16;;;;;;;23.17;10.02;;;2.40;93.30;;;;;;4977835;28;87452;-73
2023/02/13 01:10:44;;;;;;;20.92;8.63;;;2.40;93.30;;;;;;4976452;28;88071;-71
2023/02/13 01:13:10;;;;;;;20.25;9.15;;;2.40;92.80;;;;;;4978203;28;87399;-72
2023/02/13 01:15:36;;;;;;;19.48;8.70;;;2.40;92.70;;;;;;4988061;28;88599;-71
2023/02/13 01:18:03;;;;;;;28.40;10.75;;;2.40;93.00;;;;;;4976943;28;88178;-71
2023/02/13 01:20:29;;;;;;;26.30;10.10;;;2.50;93.20;;;;;;4977344;28;87483;-73
2023/02/13 01:22:55;;;;;;;23.27;10.02;;;2.50;93.20;;;;;;4976993;28;87685;-70
2023/02/13 01:25:20;;;;;;;23.20;9.38;;;2.50;92.70;;;;;;4975063;28;88214;-71
2023/02/13 01:27:46;;;;;;;25.58;9.85;;;2.60;92.90;;;;;;4976939;28;87519;-72
2023/02/13 01:30:14;;;;;;;21.40;9.00;;;2.60;92.70;;;;;;4980374;28;87529;-71
2023/02/13 01:32:41;;;;;;;25.58;9.75;;;2.70;92.50;;;;;;4978467;28;86295;-71
2023/02/13 01:35:07;;;;;;;23.17;9.70;;;2.70;92.60;;;;;;4983597;28;87559;-72
2023/02/13 01:37:33;;;;;;;21.45;9.18;;;2.70;92.50;;;;;;4991303;28;88103;-72
2023/02/13 01:39:59;;;;;;;22.77;10.10;;;2.70;92.70;;;;;;4977890;28;90067;-73
2023/02/13 01:42:30;;;;;;;23.88;10.35;;;2.70;93.30;;;;;;4982092;28;87467;-73
2023/02/13 01:44:57;;;;;;;24.80;10.32;;;2.70;93.10;;;;;;4975938;28;88124;-73
2023/02/13 01:47:57;;;;;;;26.83;11.57;;;2.70;93.20;;;;;;4976051;28;87437;-72
2023/02/13 01:50:34;;;;;;;27.20;10.95;;;2.70;93.40;;;;;;4979830;28;87612;-74
2023/02/13 01:53:14;;;;;;;24.35;9.82;;;2.70;93.00;;;;;;4985453;28;87029;-74
2023/02/13 01:55:53;;;;;;;24.40;10.57;;;2.70;93.20;;;;;;4986852;28;88182;-72
2023/02/13 01:58:25;;;;;;;21.33;9.32;;;2.60;93.00;;;;;;4979524;28;87451;-74
2023/02/13 02:00:51;;;;;;;22.05;9.45;;;2.60;93.50;;;;;;4978232;28;88045;-75
2023/02/13 02:03:22;;;;;;;21.63;9.55;;;2.70;94.00;;;;;;4984925;28;88520;-74
2023/02/13 02:05:50;;;;;;;21.55;9.10;;;2.80;93.70;;;;;;4985982;28;89207;-73
2023/02/13 02:08:17;;;;;;;20.95;9.50;;;2.90;93.20;;;;;;4987498;28;88678;-74
2023/02/13 02:10:43;;;;;;;19.42;9.07;;;2.90;93.20;;;;;;4976179;28;87011;-74
2023/02/13 02:13:17;;;;;;;23.35;9.70;;;3.00;93.40;;;;;;4975441;28;87364;-74
2023/02/13 02:15:44;;;;;;;21.88;9.45;;;3.00;93.00;;;;;;4975014;28;89715;-74
2023/02/13 02:18:23;;;;;;;20.02;9.02;;;3.10;92.80;;;;;;4976690;28;88341;-72
2023/02/13 02:21:14;;;;;;;19.73;9.02;;;3.10;93.10;;;;;;4976193;28;87417;-72
2023/02/13 02:23:58;;;;;;;21.00;8.93;;;3.20;93.30;;;;;;4977409;28;86876;-72
2023/02/13 02:26:50;;;;;;;21.92;9.23;;;3.20;93.00;;;;;;4989601;28;87786;-75
2023/02/13 02:29:43;;;;;;;20.63;9.20;;;3.30;92.60;;;;;;4981182;28;87882;-71
2023/02/13 02:32:32;;;;;;;19.08;8.32;;;3.30;92.90;;;;;;4973571;28;88502;-73
2023/02/13 02:35:17;;;;;;;20.63;8.80;;;3.40;92.50;;;;;;4989527;28;87287;-74
2023/02/13 02:37:57;;;;;;;21.15;8.85;;;3.40;92.30;;;;;;4969454;28;87137;-74
2023/02/13 02:40:50;;;;;;;21.23;8.88;;;3.50;92.20;;;;;;4979382;28;87261;-75
2023/02/13 02:43:33;;;;;;;19.63;8.15;;;3.50;92.30;;;;;;4981239;28;87679;-75
2023/02/13 02:46:13;;;;;;;22.08;9.70;;;3.50;92.00;;;;;;4980524;28;87455;-73
2023/02/13 02:52:08;;;;;;;19.17;8.68;;;3.70;91.80;;;;;;4967030;28;87112;-74
2023/02/13 03:06:09;;;;;;;19.83;8.90;;;3.80;91.60;;;;;;4978718;28;87197;-75
2023/02/13 03:14:02;;;;;;;20.42;9.05;;;4.00;91.40;;;;;;4974059;28;87445;-74
2023/02/13 03:22:35;;;;;;;20.17;8.82;;;4.00;91.80;;;;;;4980660;28;87436;-72
2023/02/13 03:25:29;;;;;;;23.00;9.07;;;3.90;91.90;;;;;;4980094;28;89807;-72
2023/02/13 03:30:50;;;;;;;21.33;8.55;;;3.90;92.00;;;;;;4977891;28;87171;-75
2023/02/13 03:33:35;;;;;;;22.95;9.32;;;3.90;91.90;;;;;;4983939;28;88256;-75
2023/02/13 03:39:03;;;;;;;20.90;8.60;;;3.90;91.90;;;;;;4989318;28;87375;-75
2023/02/13 03:41:47;;;;;;;25.27;9.65;;;3.90;92.00;;;;;;4972768;28;87243;-72
2023/02/13 03:44:31;;;;;;;22.83;9.43;;;3.90;91.90;;;;;;4978036;28;88681;-73
2023/02/13 03:47:00;;;;;;;23.15;9.65;;;4.00;92.00;;;;;;4982895;28;86963;-73
2023/02/13 03:53:00;;;;;;;22.05;9.55;;;4.10;91.70;;;;;;4981816;28;87212;-72
2023/02/13 04:01:11;;;;;;;21.02;9.23;;;4.20;91.90;;;;;;4973755;28;87846;-73
2023/02/13 04:04:04;;;;;;;22.42;9.80;;;4.20;91.90;;;;;;4979962;28;87448;-72
2023/02/13 04:06:35;;;;;;;22.90;10.18;;;4.20;91.80;;;;;;4980128;28;87971;-72
2023/02/13 04:09:01;;;;;;;22.00;9.70;;;4.20;91.90;;;;;;4984996;28;87792;-72
2023/02/13 04:11:50;;;;;;;21.77;9.32;;;4.20;92.10;;;;;;4989998;28;87457;-72
2023/02/13 04:14:26;;;;;;;23.92;9.52;;;4.20;92.10;;;;;;4978198;28;86799;-74
2023/02/13 04:16:58;;;;;;;20.73;9.88;;;4.20;92.00;;;;;;4977693;28;88299;-71
2023/02/13 04:19:25;;;;;;;19.05;8.32;;;4.20;92.00;;;;;;4977950;28;88283;-73
2023/02/13 04:21:56;;;;;;;21.00;9.63;;;4.20;91.90;;;;;;4990888;28;88379;-72
2023/02/13 04:24:22;;;;;;;23.83;10.07;;;4.20;92.10;;;;;;4984591;28;87551;-71
2023/02/13 04:26:48;;;;;;;24.77;10.35;;;4.20;92.10;;;;;;4997435;28;88345;-71
2023/02/13 04:29:14;;;;;;;22.75;10.63;;;4.20;92.10;;;;;;4975790;28;88928;-70
2023/02/13 04:31:39;;;;;;;20.25;9.18;;;4.20;92.10;;;;;;4992513;28;87479;-73
2023/02/13 04:34:05;;;;;;;22.35;10.07;;;4.30;92.30;;;;;;4978531;28;87425;-72
2023/02/13 04:36:31;;;;;;;24.60;10.88;;;4.30;92.30;;;;;;4987965;28;88188;-73
2023/02/13 04:38:57;;;;;;;21.38;10.18;;;4.30;92.20;;;;;;4990370;28;87488;-73
2023/02/13 04:41:23;;;;;;;24.80;9.85;;;4.30;92.20;;;;;;4980041;28;87204;-74
2023/02/13 04:43:51;;;;;;;21.63;10.38;;;4.30;92.20;;;;;;4991316;28;87449;-72
2023/02/13 04:46:17;;;;;;;21.88;9.82;;;4.30;92.10;;;;;;4975882;28;89377;-70
2023/02/13 04:48:43;;;;;;;22.40;10.35;;;4.30;92.10;;;;;;4977475;28;88766;-74
2023/02/13 04:51:08;;;;;;;24.55;10.32;;;4.30;92.20;;;;;;4988829;28;87636;-71
2023/02/13 04:53:34;;;;;;;25.50;10.30;;;4.30;92.20;;;;;;4983771;28;87643;-72
2023/02/13 04:56:00;;;;;;;22.23;10.70;;;4.30;92.10;;;;;;4992894;28;87417;-73
2023/02/13 04:58:25;;;;;;;23.17;10.25;;;4.30;92.10;;;;;;4985813;28;87920;-72
2023/02/13 05:00:51;;;;;;;29.20;10.85;;;4.30;92.20;;;;;;4987313;28;87455;-73
2023/02/13 05:03:17;;;;;;;25.27;10.80;;;4.30;92.20;;;;;;4987236;28;86678;-75
2023/02/13 05:05:43;;;;;;;27.58;12.05;;;4.40;92.10;;;;;;4976306;28;88045;-71
2023/02/13 05:08:09;;;;;;;22.42;9.77;;;4.40;92.10;;;;;;4985819;28;87442;-73
2023/02/13 05:10:35;;;;;;;22.50;9.82;;;4.50;91.90;;;;;;4977016;28;88339;-75
2023/02/13 05:13:01;;;;;;;24.10;10.65;;;4.40;91.90;;;;;;4978670;28;87082;-74
2023/02/13 05:15:27;;;;;;;24.73;10.75;;;4.40;91.90;;;;;;4982073;28;90424;-74
2023/02/13 05:17:53;;;;;;;21.73;10.15;;;4.40;91.90;;;;;;4978794;28;88341;-74
2023/02/13 05:20:19;;;;;;;24.77;10.75;;;4.40;92.20;;;;;;4975898;28;87030;-73
2023/02/13 05:25:34;;;;;;;21.60;9.82;;;4.40;91.70;;;;;;4986981;28;87330;-73
2023/02/13 05:28:00;;;;;;;23.00;10.32;;;4.30;91.90;;;;;;4976248;28;89028;-73
2023/02/13 05:30:26;;;;;;;25.35;10.38;;;4.20;92.00;;;;;;4975959;28;87112;-73
2023/02/13 05:32:53;;;;;;;23.42;11.02;;;4.20;92.10;;;;;;4981112;28;87288;-71
2023/02/13 05:35:20;;;;;;;24.42;9.82;;;4.20;92.10;;;;;;4976255;28;89087;-73
2023/02/13 05:37:45;;;;;;;26.30;10.57;;;4.20;92.10;;;;;;4977362;28;88349;-74
2023/02/13 05:40:12;;;;;;;29.17;11.95;;;4.20;92.30;;;;;;4976349;28;87402;-72
2023/02/13 05:42:41;;;;;;;26.10;10.93;;;4.20;92.10;;;;;;4977285;28;87257;-75
2023/02/13 05:45:08;;;;;;;24.08;11.00;;;4.20;92.20;;;;;;4976228;28;88263;-73
2023/02/13 05:47:34;;;;;;;23.83;10.63;;;4.10;92.10;;;;;;4976278;28;87969;-73
2023/02/13 05:50:00;;;;;;;24.67;10.75;;;4.10;92.30;;;;;;4977666;28;87331;-73
2023/02/13 05:52:26;;;;;;;25.25;10.80;;;4.00;92.50;;;;;;4986027;28;86679;-72
2023/02/13 05:54:51;;;;;;;25.02;10.73;;;4.00;92.50;;;;;;4980634;28;89074;-72
2023/02/13 05:57:18;;;;;;;24.17;10.63;;;4.00;92.60;;;;;;4976059;28;87225;-71
2023/02/13 05:59:43;;;;;;;23.42;10.43;;;4.00;92.60;;;;;;4976991;28;88906;-72
2023/02/13 06:02:09;;;;;;;25.70;10.60;;;4.00;92.50;;;;;;4976613;28;87301;-72
2023/02/13 06:04:35;;;;;;;24.02;10.23;;;3.90;92.70;;;;;;4990197;28;87678;-71
2023/02/13 06:07:00;;;;;;;24.30;10.88;;;3.90;92.80;;;;;;4981511;28;89515;-74
2023/02/13 06:09:26;;;;;;;25.77;10.13;;;3.80;93.20;;;;;;4979323;28;87451;-72
2023/02/13 06:11:52;;;;;;;25.65;10.85;;;3.80;93.30;;;;;;4969162;28;87407;-72
2023/02/13 06:14:17;;;;;;;26.02;10.40;;;3.90;93.30;;;;;;4985482;28;88252;-72
2023/02/13 06:16:43;;;;;;;25.73;10.75;;;3.90;93.10;;;;;;4974106;28;87372;-73
2023/02/13 06:19:09;;;;;;;24.83;10.50;;;4.00;93.00;;;;;;4987750;28;87529;-72
2023/02/13 06:21:36;;;;;;;27.08;11.00;;;4.00;92.90;;;;;;4973170;28;87348;-74
2023/02/13 06:24:06;;;;;;;28.02;11.38;;;3.90;92.90;;;;;;4980594;28;89149;-73
2023/02/13 06:26:33;;;;;;;28.98;11.82;;;3.90;93.00;;;;;;4979657;28;88411;-74
2023/02/13 06:28:59;;;;;;;27.50;11.63;;;3.90;93.20;;;;;;4978184;28;89116;-72
2023/02/13 06:31:24;;;;;;;26.98;11.05;;;3.90;93.20;;;;;;4979002;28;87080;-72
2023/02/13 06:33:50;;;;;;;25.88;11.30;;;3.90;93.10;;;;;;4979281;28;87219;-72
2023/02/13 06:36:16;;;;;;;26.90;10.93;;;4.00;93.00;;;;;;4978065;28;87435;-73
2023/02/13 06:38:41;;;;;;;28.05;11.77;;;4.20;92.80;;;;;;4977731;28;87456;-72
2023/02/13 06:41:08;;;;;;;28.70;11.38;;;4.20;92.60;;;;;;4979240;28;86918;-73
2023/02/13 06:43:35;;;;;;;25.17;11.63;;;4.20;92.50;;;;;;4979097;28;87444;-74
2023/02/13 06:46:04;;;;;;;28.15;11.77;;;4.10;92.70;;;;;;4977788;28;87966;-72
2023/02/13 06:48:30;;;;;;;30.08;11.70;;;4.00;92.90;;;;;;4977446;28;88378;-73
2023/02/13 06:50:56;;;;;;;32.30;12.18;;;4.00;93.10;;;;;;4976454;28;87714;-72
2023/02/13 06:53:23;;;;;;;28.75;12.13;;;4.00;93.10;;;;;;4978365;28;88389;-72
2023/02/13 06:55:53;;;;;;;31.50;11.93;;;4.00;93.00;;;;;;4978262;28;87943;-73
2023/02/13 06:58:20;;;;;;;31.15;12.10;;;4.10;92.90;;;;;;4980158;28;87495;-74
2023/02/13 07:00:46;;;;;;;26.60;11.52;;;4.10;92.90;;;;;;4978819;28;87520;-72
2023/02/13 07:03:12;;;;;;;27.65;11.80;;;4.10;92.90;;;;;;4977141;28;87738;-75
2023/02/13 07:05:42;;;;;;;29.45;12.60;;;4.10;92.80;;;;;;4978471;28;87876;-71
2023/02/13 07:08:09;;;;;;;28.63;11.88;;;4.20;92.90;;;;;;4989699;28;87392;-74
2023/02/13 07:10:40;;;;;;;31.30;12.02;;;4.20;92.60;;;;;;4979465;28;87239;-73
2023/02/13 07:13:06;;;;;;;30.70;11.80;;;4.20;92.70;;;;;;4970806;28;89268;-71
2023/02/13 07:15:32;;;;;;;32.03;12.75;;;4.20;92.60;;;;;;4981147;28;87932;-72
2023/02/13 07:17:59;;;;;;;28.42;11.60;;;4.20;92.60;;;;;;4977933;28;88067;-73
2023/02/13 07:20:26;;;;;;;26.23;11.85;;;4.30;92.70;;;;;;4983908;28;87498;-73
2023/02/13 07:22:52;;;;;;;33.85;11.60;;;4.30;92.30;;;;;;4981248;28;87843;-73
2023/02/13 07:25:18;;;;;;;29.10;11.88;;;4.40;92.40;;;;;;4977962;28;87353;-73
2023/02/13 07:27:44;;;;;;;28.63;11.80;;;4.40;92.10;;;;;;4977983;28;87493;-73
2023/02/13 07:30:10;;;;;;;24.92;11.25;;;4.40;92.30;;;;;;4991912;28;86464;-74
2023/02/13 07:32:36;;;;;;;26.20;11.32;;;4.40;91.90;;;;;;4977211;28;87986;-74
2023/02/13 07:35:02;;;;;;;27.90;11.68;;;4.50;92.00;;;;;;4975156;28;89116;-73
2023/02/13 07:37:28;;;;;;;31.85;13.38;;;4.40;92.10;;;;;;4987422;28;88057;-73
2023/02/13 07:39:54;;;;;;;31.13;12.52;;;4.40;92.10;;;;;;4979947;28;87281;-73
2023/02/13 07:42:20;;;;;;;30.85;12.85;;;4.40;92.10;;;;;;4970610;28;87959;-75
2023/02/13 07:44:45;;;;;;;29.92;12.63;;;4.50;92.00;;;;;;4971690;28;87985;-72
2023/02/13 07:47:11;;;;;;;29.48;11.90;;;4.50;91.90;;;;;;4972718;28;86978;-73
2023/02/13 07:49:37;;;;;;;27.48;12.60;;;4.60;91.90;;;;;;4977565;28;87077;-74
2023/02/13 07:52:04;;;;;;;29.55;12.38;;;4.70;91.60;;;;;;4989038;28;87397;-71
2023/02/13 07:54:30;;;;;;;28.02;12.02;;;4.80;91.60;;;;;;4969320;28;87298;-74
2023/02/13 07:56:56;;;;;;;29.42;12.65;;;4.80;91.30;;;;;;4983124;28;87347;-73
2023/02/13 07:59:22;;;;;;;32.75;13.23;;;4.80;91.30;;;;;;4991776;28;87536;-73
2023/02/13 08:01:47;;;;;;;28.70;12.25;;;4.70;91.40;;;;;;4991422;28;88464;-74
2023/02/13 08:04:13;;;;;;;31.48;12.68;;;4.80;91.40;;;;;;4972407;28;89432;-72
2023/02/13 08:06:39;;;;;;;29.52;12.82;;;4.80;91.10;;;;;;4985256;28;87217;-72
2023/02/13 08:11:53;;;;;;;29.80;12.48;;;4.70;91.10;;;;;;4962730;28;87852;-74
2023/02/13 08:14:23;;;;;;;30.70;12.57;;;4.70;91.30;;;;;;4968735;28;87406;-72
2023/02/13 08:16:50;;;;;;;30.73;12.35;;;4.90;91.20;;;;;;4974256;28;87461;-74
2023/02/13 08:19:16;;;;;;;27.02;11.93;;;5.10;91.00;;;;;;4966895;28;86722;-76
2023/02/13 08:21:41;;;;;;;32.38;13.13;;;5.20;90.20;;;;;;4966973;28;89518;-73
2023/02/13 08:24:09;;;;;;;29.50;12.40;;;5.30;89.80;;;;;;4982287;28;88500;-74
2023/02/13 08:26:34;;;;;;;28.92;11.55;;;5.30;90.30;;;;;;4974704;28;88503;-74
2023/02/13 08:29:00;;;;;;;29.02;11.80;;;5.40;89.90;;;;;;4974926;28;87538;-74
2023/02/13 08:31:26;;;;;;;29.77;12.45;;;5.60;89.20;;;;;;4974764;28;88282;-74
2023/02/13 08:33:51;;;;;;;27.92;12.35;;;5.60;89.00;;;;;;4963377;28;87713;-72
2023/02/13 08:36:21;;;;;;;28.40;12.00;;;5.70;88.60;;;;;;4975203;28;87479;-72
2023/02/13 08:38:46;;;;;;;27.60;12.68;;;5.80;87.30;;;;;;4975585;28;87682;-72
2023/02/13 08:41:13;;;;;;;27.02;12.23;;;5.90;87.50;;;;;;4979609;28;87712;-72
2023/02/13 08:43:38;;;;;;;27.05;12.68;;;6.00;86.60;;;;;;4990047;28;87273;-71
2023/02/13 08:46:04;;;;;;;27.17;12.10;;;6.00;86.60;;;;;;4977271;28;88482;-73
2023/02/13 08:48:30;;;;;;;25.70;11.70;;;6.10;87.20;;;;;;4984136;28;87390;-73
2023/02/13 08:50:56;;;;;;;25.70;11.50;;;6.20;85.20;;;;;;4975022;28;88582;-73
2023/02/13 08:53:22;;;;;;;25.85;11.48;;;6.20;84.60;;;;;;4981985;28;89681;-72
2023/02/13 08:55:55;;;;;;;23.20;11.10;;;6.10;85.10;;;;;;4975646;28;87541;-72
2023/02/13 08:58:21;;;;;;;26.95;11.52;;;6.20;85.40;;;;;;4977056;28;87499;-72
2023/02/13 09:00:47;;;;;;;27.58;12.02;;;6.30;84.30;;;;;;4975448;28;87074;-72
2023/02/13 09:03:13;;;;;;;27.75;11.43;;;6.20;84.10;;;;;;4977032;28;88396;-72
2023/02/13 09:05:39;;;;;;;28.33;11.77;;;6.20;84.50;;;;;;4975252;28;88408;-71
2023/02/13 09:08:06;;;;;;;28.15;11.40;;;6.30;84.70;;;;;;4980000;28;87341;-72
2023/02/13 09:10:33;;;;;;;25.67;11.82;;;6.40;84.20;;;;;;4975934;28;88716;-71
2023/02/13 09:13:00;;;;;;;26.33;11.77;;;6.50;83.80;;;;;;4973764;28;87658;-73
2023/02/13 09:15:26;;;;;;;23.08;10.82;;;6.50;83.20;;;;;;4974355;28;88328;-72
2023/02/13 09:17:51;;;;;;;25.58;11.75;;;6.40;83.50;;;;;;4976516;28;87740;-73
2023/02/13 09:20:18;;;;;;;30.17;12.13;;;6.30;83.90;;;;;;4974714;28;88190;-73
2023/02/13 09:22:43;;;;;;;27.33;11.65;;;6.30;84.20;;;;;;4972363;28;87182;-72
2023/02/13 09:25:09;;;;;;;23.42;10.77;;;6.40;84.10;;;;;;4976517;28;87702;-73
2023/02/13 09:27:37;;;;;;;26.90;10.48;;;6.50;83.50;;;;;;4972529;28;87546;-72
2023/02/13 09:30:08;;;;;;;21.27;9.57;;;6.60;83.20;;;;;;4979390;28;88001;-74
2023/02/13 09:32:33;;;;;;;;;;;6.60;83.00;;;;;;4973114;28;89009;-73
2023/02/13 09:34:59;;;;;;;23.27;9.73;;;6.60;82.70;;;;;;4970065;28;88236;-72
2023/02/13 09:37:26;;;;;;;31.92;9.82;;;6.70;83.30;;;;;;4969859;28;87513;-75
2023/02/13 09:39:52;;;;;;;22.02;9.60;;;6.80;81.80;;;;;;4966376;28;90497;-71
2023/02/13 09:42:27;;;;;;;23.80;10.25;;;7.00;81.30;;;;;;4968923;28;88224;-71
2023/02/13 09:44:57;;;;;;;23.17;9.63;;;7.10;81.00;;;;;;4974886;28;88753;-71
2023/02/13 09:47:29;;;;;;;23.40;9.88;;;7.00;80.50;;;;;;4974091;28;87679;-72
2023/02/13 09:50:13;;;;;;;22.67;9.77;;;7.00;80.80;;;;;;4968427;28;88968;-75
2023/02/13 09:52:42;;;;;;;25.15;10.43;;;7.10;80.80;;;;;;4973723;28;89318;-73
2023/02/13 09:55:52;;;;;;;23.55;10.57;;;7.30;80.20;;;;;;4973751;28;87390;-73
2023/02/13 09:58:31;;;;;;;22.38;9.93;;;7.50;79.40;;;;;;4972970;28;86619;-73
2023/02/13 10:00:59;;;;;;;23.55;11.35;;;7.50;79.20;;;;;;4973541;28;88617;-73
2023/02/13 10:03:39;;;;;;;26.98;10.00;;;7.70;77.80;;;;;;4975006;28;88753;-73
2023/02/13 10:06:05;;;;;;;26.90;11.38;;;7.70;78.50;;;;;;4996246;28;88662;-73
2023/02/13 10:08:46;;;;;;;26.20;11.90;;;7.70;79.20;;;;;;4983224;28;87448;-73
2023/02/13 10:11:24;;;;;;;21.92;10.32;;;7.90;78.50;;;;;;4984672;28;87418;-73
2023/02/13 10:14:23;;;;;;;23.38;10.95;;;8.10;77.40;;;;;;4978452;28;87971;-73
2023/02/13 10:16:58;;;;;;;24.85;11.00;;;8.20;77.20;;;;;;4979474;28;87488;-74
2023/02/13 10:19:24;;;;;;;23.95;11.02;;;8.40;76.80;;;;;;4977344;28;87386;-73
2023/02/13 10:21:54;;;;;;;23.25;11.27;;;8.60;75.70;;;;;;4987380;28;88266;-73
2023/02/13 10:24:33;;;;;;;23.38;10.93;;;8.70;75.40;;;;;;4998106;28;87174;-73
2023/02/13 10:27:01;;;;;;;23.70;11.43;;;8.90;73.70;;;;;;4977684;28;87390;-75
2023/02/13 10:30:05;;;;;;;25.52;11.00;;;9.00;74.10;;;;;;4976509;28;87209;-75
2023/02/13 10:33:17;;;;;;;21.65;11.25;;;9.20;72.70;;;;;;4960995;28;88651;-72
2023/02/13 10:36:05;;;;;;;23.10;11.38;;;9.80;72.10;;;;;;4973298;28;90139;-73
2023/02/13 10:38:33;;;;;;;23.92;11.75;;;10.50;69.70;;;;;;4980885;28;87774;-72
2023/02/13 10:41:20;;;;;;;27.17;12.05;;;10.80;67.60;;;;;;4986852;28;87668;-73
2023/02/13 10:43:51;;;;;;;25.38;12.43;;;10.70;67.90;;;;;;4984039;28;88392;-73
2023/02/13 10:46:48;;;;;;;21.75;11.15;;;10.70;67.40;;;;;;4969701;28;88087;-73
2023/02/13 10:49:24;;;;;;;21.38;11.40;;;10.70;67.70;;;;;;4977175;28;87578;-74
2023/02/13 10:52:08;;;;;;;26.50;12.13;;;10.80;68.20;;;;;;4976615;28;86873;-73
2023/02/13 10:54:55;;;;;;;25.75;12.48;;;10.80;68.90;;;;;;4974050;28;88221;-73
2023/02/13 10:57:24;;;;;;;23.58;11.68;;;11.00;67.60;;;;;;4974490;28;88910;-73
2023/02/13 11:00:18;;;;;;;22.70;10.90;;;11.10;67.60;;;;;;4981042;28;88604;-72
2023/02/13 11:02:44;;;;;;;24.95;11.75;;;11.10;68.10;;;;;;4973894;28;88635;-74
2023/02/13 11:05:17;;;;;;;21.23;11.15;;;10.90;67.80;;;;;;4972571;28;87827;-72
2023/02/13 11:07:45;;;;;;;25.48;11.13;;;11.20;67.30;;;;;;4981948;28;87712;-74
2023/02/13 11:10:25;;;;;;;31.48;12.15;;;11.30;65.90;;;;;;4976071;28;87532;-72
2023/02/13 11:12:52;;;;;;;24.10;11.43;;;11.50;66.50;;;;;;4967662;28;88754;-74
2023/02/13 11:15:29;;;;;;;21.80;11.45;;;11.40;66.00;;;;;;4973069;28;87741;-76
2023/02/13 11:18:19;;;;;;;22.75;11.88;;;11.70;66.70;;;;;;4970598;28;87944;-72
2023/02/13 11:20:47;;;;;;;20.60;10.65;;;11.90;65.70;;;;;;4968669;28;87485;-74
2023/02/13 11:23:31;;;;;;;26.50;12.52;;;11.80;66.20;;;;;;4965013;28;88722;-74
2023/02/13 11:26:11;;;;;;;25.35;12.00;;;11.40;66.30;;;;;;4967590;28;90097;-72
2023/02/13 11:28:54;;;;;;;24.08;12.27;;;11.60;67.50;;;;;;4966636;28;88833;-73
2023/02/13 11:31:31;;;;;;;26.65;12.80;;;11.60;65.80;;;;;;4966796;28;89159;-72
2023/02/13 11:34:16;;;;;;;22.55;11.38;;;11.40;66.20;;;;;;4965156;28;89053;-72
2023/02/13 11:36:41;;;;;;;24.42;12.60;;;11.50;67.30;;;;;;4970798;28;88904;-72
2023/02/13 11:39:19;;;;;;;23.63;12.20;;;11.40;66.40;;;;;;4975368;28;87495;-72
2023/02/13 11:41:46;;;;;;;25.02;12.23;;;11.00;67.10;;;;;;4969073;28;89218;-72
2023/02/13 11:44:25;;;;;;;27.02;12.35;;;10.70;68.90;;;;;;4976974;28;88075;-72
2023/02/13 11:46:54;;;;;;;24.15;12.27;;;10.60;68.80;;;;;;4966530;28;90183;-73
2023/02/13 11:49:25;;;;;;;28.10;12.98;;;10.50;69.60;;;;;;4957119;28;89541;-72
2023/02/13 11:51:56;;;;;;;28.75;12.70;;;10.30;69.90;;;;;;4988252;28;88377;-73
2023/02/13 11:54:34;;;;;;;24.88;11.95;;;10.20;70.30;;;;;;4977007;28;88074;-72
2023/02/13 11:57:21;;;;;;;22.40;12.07;;;10.10;71.50;;;;;;4978872;28;87557;-71
2023/02/13 11:59:49;;;;;;;28.23;12.48;;;9.80;71.30;;;;;;4975366;28;88253;-72
2023/02/13 12:02:23;;;;;;;26.35;12.45;;;9.60;72.40;;;;;;4969821;28;87454;-75
2023/02/13 12:05:13;;;;;;;24.67;11.95;;;9.50;72.20;;;;;;4966997;28;87422;-71
2023/02/13 12:07:41;;;;;;;25.05;11.20;;;9.70;72.20;;;;;;4972226;28;88120;-71
2023/02/13 12:10:26;;;;;;;27.40;14.10;;;9.70;73.70;;;;;;4970331;28;91346;-73
2023/02/13 12:13:17;;;;;;;27.80;13.20;;;9.70;72.10;;;;;;4970142;28;87985;-70
2023/02/13 12:15:45;;;;;;;24.95;12.60;;;9.80;71.60;;;;;;4984400;28;87736;-71
2023/02/13 12:18:28;;;;;;;27.58;12.45;;;9.90;72.10;;;;;;4975435;28;89057;-72
2023/02/13 12:20:58;;;;;;;25.30;12.38;;;10.10;71.00;;;;;;4972562;28;91408;-73
2023/02/13 12:23:42;;;;;;;24.85;12.95;;;10.20;70.00;;;;;;4975456;28;88813;-74
2023/02/13 12:26:32;;;;;;;26.83;13.05;;;10.10;70.40;;;;;;4966597;28;87613;-71
2023/02/13 12:29:06;;;;;;;26.77;13.13;;;10.10;71.20;;;;;;4973696;28;90148;-71
2023/02/13 12:31:39;;;;;;;24.42;11.27;;;10.00;70.80;;;;;;4972632;28;88301;-71
2023/02/13 12:34:19;;;;;;;25.35;12.88;;;9.90;72.50;;;;;;4974137;28;87298;-71
2023/02/13 12:37:06;;;;;;;26.00;11.82;;;9.80;72.10;;;;;;4976288;28;87024;-71
2023/02/13 12:39:35;;;;;;;31.73;12.52;;;9.70;71.60;;;;;;4975212;28;88143;-71
2023/02/13 12:42:44;;;;;;;27.15;12.63;;;9.70;72.20;;;;;;4970022;28;87447;-72
2023/02/13 12:45:15;;;;;;;27.23;13.00;;;9.50;72.10;;;;;;4972462;28;88351;-71
2023/02/13 12:48:04;;;;;;;26.05;12.95;;;9.50;72.80;;;;;;4973413;28;87278;-71
2023/02/13 12:50:34;;;;;;;26.75;11.68;;;9.40;73.40;;;;;;4966775;28;88852;-71
2023/02/13 12:53:16;;;;;;;;;;;9.20;74.30;;;;;;4973974;28;87495;-73
2023/02/13 12:55:51;;;;;;;27.73;12.48;;;8.80;75.10;;;;;;4974389;28;87542;-74
2023/02/13 12:58:35;;;;;;;29.90;12.70;;;8.50;75.70;;;;;;4983521;28;87337;-73
2023/02/13 13:01:45;;;;;;;28.15;12.82;;;8.40;76.00;;;;;;4966228;28;88171;-73
2023/02/13 13:04:14;;;;;;;28.00;12.23;;;8.30;76.60;;;;;;4963422;28;87517;-73
2023/02/13 13:06:58;;;;;;;28.67;12.68;;;8.20;77.90;;;;;;4963011;28;87609;-72
2023/02/13 13:09:41;;;;;;;28.65;12.98;;;8.10;77.80;;;;;;4983250;28;87528;-74
2023/02/13 13:12:31;;;;;;;29.23;12.52;;;7.90;78.50;;;;;;4972164;28;89331;-71
2023/02/13 13:15:12;;;;;;;30.73;12.55;;;7.90;78.50;;;;;;4969432;28;88843;-70
2023/02/13 13:17:47;;;;;;;29.63;13.20;;;7.80;78.90;;;;;;4967198;28;87527;-72
2023/02/13 13:20:31;;;;;;;31.00;12.85;;;7.70;79.00;;;;;;4964556;28;87642;-72
2023/02/13 13:23:12;;;;;;;28.70;12.15;;;7.60;80.20;;;;;;4966661;28;90952;-71
2023/02/13 13:25:56;;;;;;;30.95;13.32;;;7.50;80.20;;;;;;4970063;28;88703;-72
2023/02/13 13:28:36;;;;;;;28.45;13.13;;;7.40;80.60;;;;;;4965109;28;87719;-71
2023/02/13 13:31:02;;;;;;;28.38;13.02;;;7.50;80.50;;;;;;4962731;28;87517;-70
2023/02/13 13:33:29;;;;;;;28.90;12.25;;;7.50;80.50;;;;;;4973553;28;87928;-71
2023/02/13 13:36:04;;;;;;;27.40;12.32;;;7.50;80.40;;;;;;4958629;28;87580;-70
2023/02/13 13:38:50;;;;;;;30.98;13.23;;;7.50;80.30;;;;;;4964269;28;88615;-74
2023/02/13 13:41:46;;;;;;;26.67;12.52;;;7.40;80.50;;;;;;4962646;28;88723;-76
2023/02/13 13:44:43;;;;;;;26.10;11.57;;;7.50;80.70;;;;;;4971085;28;87584;-73
2023/02/13 13:47:34;;;;;;;28.02;12.57;;;7.50;80.70;;;;;;4971014;28;88920;-73